sensor_id;sensor_type;location;lat;lon;timestamp;P1;durP1;ratioP1;P2;durP2;ratioP2
22814;SDS011;11574;51.058;13.712;2022-08-19T00:00:12;13.47;;;11.03;;
22814;SDS011;11574;51.058;13.712;2022-08-19T00:05:16;14.93;;;11.50;;
22814;SDS011;11574;51.058;13.712;2022-08-19T00:10:20;14.07;;;11.40;;
22814;SDS011;11574;51.058;13.712;2022-08-19T00:15:24;14.67;;;11.53;;
22814;SDS011;11574;51.058;13.712;2022-08-19T00:20:27;16.40;;;12.80;;
22814;SDS011;11574;51.058;13.712;2022-08-19T00:25:31;18.27;;;12.67;;
22814;SDS011;11574;51.058;13.712;2022-08-19T00:30:33;16.37;;;12.47;;
22814;SDS011;11574;51.058;13.712;2022-08-19T00:35:36;16.27;;;12.53;;
22814;SDS011;11574;51.058;13.712;2022-08-19T00:40:40;13.97;;;12.47;;
22814;SDS011;11574;51.058;13.712;2022-08-19T00:45:46;14.87;;;12.30;;
22814;SDS011;11574;51.058;13.712;2022-08-19T00:50:50;17.97;;;13.07;;
22814;SDS011;11574;51.058;13.712;2022-08-19T00:55:58;15.70;;;13.27;;
22814;SDS011;11574;51.058;13.712;2022-08-19T01:01:02;15.73;;;13.93;;
22814;SDS011;11574;51.058;13.712;2022-08-19T01:06:05;16.27;;;14.27;;
22814;SDS011;11574;51.058;13.712;2022-08-19T01:11:08;15.07;;;12.30;;
22814;SDS011;11574;51.058;13.712;2022-08-19T01:16:12;17.50;;;14.17;;
22814;SDS011;11574;51.058;13.712;2022-08-19T01:21:16;17.73;;;14.40;;
22814;SDS011;11574;51.058;13.712;2022-08-19T01:26:22;18.97;;;13.87;;
22814;SDS011;11574;51.058;13.712;2022-08-19T01:31:26;16.80;;;15.02;;
22814;SDS011;11574;51.058;13.712;2022-08-19T01:36:31;17.50;;;13.87;;
22814;SDS011;11574;51.058;13.712;2022-08-19T01:41:35;16.03;;;13.50;;
22814;SDS011;11574;51.058;13.712;2022-08-19T01:46:38;15.97;;;13.90;;
22814;SDS011;11574;51.058;13.712;2022-08-19T01:51:40;20.13;;;15.20;;
22814;SDS011;11574;51.058;13.712;2022-08-19T01:56:44;18.70;;;14.53;;
22814;SDS011;11574;51.058;13.712;2022-08-19T02:01:47;16.57;;;14.37;;
22814;SDS011;11574;51.058;13.712;2022-08-19T02:06:50;17.83;;;14.30;;
22814;SDS011;11574;51.058;13.712;2022-08-19T02:11:56;15.17;;;13.57;;
22814;SDS011;11574;51.058;13.712;2022-08-19T02:17:01;15.13;;;13.53;;
22814;SDS011;11574;51.058;13.712;2022-08-19T02:22:03;15.50;;;13.40;;
22814;SDS011;11574;51.058;13.712;2022-08-19T02:27:07;13.83;;;12.37;;
22814;SDS011;11574;51.058;13.712;2022-08-19T02:32:09;17.50;;;12.47;;
22814;SDS011;11574;51.058;13.712;2022-08-19T02:37:11;15.83;;;12.80;;
22814;SDS011;11574;51.058;13.712;2022-08-19T02:42:29;16.90;;;13.10;;
22814;SDS011;11574;51.058;13.712;2022-08-19T02:47:33;14.47;;;12.97;;
22814;SDS011;11574;51.058;13.712;2022-08-19T02:52:36;19.17;;;13.73;;
22814;SDS011;11574;51.058;13.712;2022-08-19T02:57:39;19.47;;;15.03;;
22814;SDS011;11574;51.058;13.712;2022-08-19T03:02:42;15.80;;;13.57;;
22814;SDS011;11574;51.058;13.712;2022-08-19T03:07:45;16.83;;;14.70;;
22814;SDS011;11574;51.058;13.712;2022-08-19T03:12:48;18.63;;;15.17;;
22814;SDS011;11574;51.058;13.712;2022-08-19T03:17:51;15.83;;;14.23;;
22814;SDS011;11574;51.058;13.712;2022-08-19T03:22:54;18.10;;;15.00;;
22814;SDS011;11574;51.058;13.712;2022-08-19T03:27:58;17.30;;;14.13;;
22814;SDS011;11574;51.058;13.712;2022-08-19T03:33:00;15.53;;;13.83;;
22814;SDS011;11574;51.058;13.712;2022-08-19T03:38:03;16.83;;;14.15;;
22814;SDS011;11574;51.058;13.712;2022-08-19T03:43:07;18.60;;;14.33;;
22814;SDS011;11574;51.058;13.712;2022-08-19T03:48:10;20.13;;;15.02;;
22814;SDS011;11574;51.058;13.712;2022-08-19T03:53:12;16.50;;;14.73;;
22814;SDS011;11574;51.058;13.712;2022-08-19T03:58:16;17.60;;;14.80;;
22814;SDS011;11574;51.058;13.712;2022-08-19T04:03:19;17.40;;;14.63;;
22814;SDS011;11574;51.058;13.712;2022-08-19T04:08:21;15.40;;;13.27;;
22814;SDS011;11574;51.058;13.712;2022-08-19T04:13:25;17.57;;;13.60;;
22814;SDS011;11574;51.058;13.712;2022-08-19T04:18:27;17.97;;;15.00;;
22814;SDS011;11574;51.058;13.712;2022-08-19T04:23:31;19.83;;;14.10;;
22814;SDS011;11574;51.058;13.712;2022-08-19T04:33:38;21.67;;;15.27;;
22814;SDS011;11574;51.058;13.712;2022-08-19T04:38:41;23.57;;;16.50;;
22814;SDS011;11574;51.058;13.712;2022-08-19T04:43:44;19.97;;;15.20;;
22814;SDS011;11574;51.058;13.712;2022-08-19T04:48:50;20.73;;;15.87;;
22814;SDS011;11574;51.058;13.712;2022-08-19T04:53:52;18.90;;;15.27;;
22814;SDS011;11574;51.058;13.712;2022-08-19T04:58:55;16.57;;;14.00;;
22814;SDS011;11574;51.058;13.712;2022-08-19T05:04:00;17.73;;;15.53;;
22814;SDS011;11574;51.058;13.712;2022-08-19T05:09:04;18.33;;;14.97;;
22814;SDS011;11574;51.058;13.712;2022-08-19T05:14:07;14.83;;;13.23;;
22814;SDS011;11574;51.058;13.712;2022-08-19T05:19:10;18.73;;;14.57;;
22814;SDS011;11574;51.058;13.712;2022-08-19T05:24:30;16.43;;;14.43;;
22814;SDS011;11574;51.058;13.712;2022-08-19T05:29:34;19.27;;;14.77;;
22814;SDS011;11574;51.058;13.712;2022-08-19T05:34:43;16.67;;;13.97;;
22814;SDS011;11574;51.058;13.712;2022-08-19T05:39:45;20.90;;;15.33;;
22814;SDS011;11574;51.058;13.712;2022-08-19T05:44:49;15.60;;;14.00;;
22814;SDS011;11574;51.058;13.712;2022-08-19T05:49:53;21.20;;;15.40;;
22814;SDS011;11574;51.058;13.712;2022-08-19T05:54:55;21.73;;;15.50;;
22814;SDS011;11574;51.058;13.712;2022-08-19T05:59:58;15.73;;;13.97;;
22814;SDS011;11574;51.058;13.712;2022-08-19T06:05:03;19.70;;;13.67;;
22814;SDS011;11574;51.058;13.712;2022-08-19T06:10:09;18.00;;;12.67;;
22814;SDS011;11574;51.058;13.712;2022-08-19T06:15:13;18.27;;;11.30;;
22814;SDS011;11574;51.058;13.712;2022-08-19T06:20:16;13.20;;;9.87;;
22814;SDS011;11574;51.058;13.712;2022-08-19T06:25:20;10.47;;;9.00;;
22814;SDS011;11574;51.058;13.712;2022-08-19T06:30:22;10.10;;;9.10;;
22814;SDS011;11574;51.058;13.712;2022-08-19T06:35:26;12.33;;;9.87;;
22814;SDS011;11574;51.058;13.712;2022-08-19T06:40:29;12.23;;;10.23;;
22814;SDS011;11574;51.058;13.712;2022-08-19T06:45:31;15.90;;;10.77;;
22814;SDS011;11574;51.058;13.712;2022-08-19T06:50:36;14.83;;;11.67;;
22814;SDS011;11574;51.058;13.712;2022-08-19T06:55:38;14.30;;;12.30;;
22814;SDS011;11574;51.058;13.712;2022-08-19T07:00:40;15.60;;;12.83;;
22814;SDS011;11574;51.058;13.712;2022-08-19T07:05:44;14.80;;;13.20;;
22814;SDS011;11574;51.058;13.712;2022-08-19T07:10:46;19.37;;;12.63;;
22814;SDS011;11574;51.058;13.712;2022-08-19T07:15:49;16.40;;;13.63;;
22814;SDS011;11574;51.058;13.712;2022-08-19T07:21:01;17.57;;;14.23;;
22814;SDS011;11574;51.058;13.712;2022-08-19T07:26:04;17.40;;;14.53;;
22814;SDS011;11574;51.058;13.712;2022-08-19T07:31:08;17.57;;;14.40;;
22814;SDS011;11574;51.058;13.712;2022-08-19T07:36:14;20.70;;;16.33;;
22814;SDS011;11574;51.058;13.712;2022-08-19T07:41:18;16.10;;;14.30;;
22814;SDS011;11574;51.058;13.712;2022-08-19T07:46:20;19.03;;;15.40;;
22814;SDS011;11574;51.058;13.712;2022-08-19T07:51:24;19.17;;;14.67;;
22814;SDS011;11574;51.058;13.712;2022-08-19T07:56:26;18.23;;;15.33;;
22814;SDS011;11574;51.058;13.712;2022-08-19T08:01:29;20.30;;;16.10;;
22814;SDS011;11574;51.058;13.712;2022-08-19T08:06:33;22.87;;;16.60;;
22814;SDS011;11574;51.058;13.712;2022-08-19T08:11:55;22.07;;;17.23;;
22814;SDS011;11574;51.058;13.712;2022-08-19T08:16:58;22.47;;;16.77;;
22814;SDS011;11574;51.058;13.712;2022-08-19T08:22:02;21.60;;;15.00;;
22814;SDS011;11574;51.058;13.712;2022-08-19T08:27:06;16.60;;;14.47;;
22814;SDS011;11574;51.058;13.712;2022-08-19T08:32:08;18.20;;;14.10;;
22814;SDS011;11574;51.058;13.712;2022-08-19T08:37:12;16.17;;;12.17;;
22814;SDS011;11574;51.058;13.712;2022-08-19T08:42:17;13.93;;;12.43;;
22814;SDS011;11574;51.058;13.712;2022-08-19T08:47:22;11.93;;;10.73;;
22814;SDS011;11574;51.058;13.712;2022-08-19T08:52:28;11.40;;;10.17;;
22814;SDS011;11574;51.058;13.712;2022-08-19T08:57:33;11.27;;;10.07;;
22814;SDS011;11574;51.058;13.712;2022-08-19T09:02:36;14.37;;;10.10;;
22814;SDS011;11574;51.058;13.712;2022-08-19T09:07:42;14.27;;;12.77;;
22814;SDS011;11574;51.058;13.712;2022-08-19T09:12:51;15.97;;;12.40;;
22814;SDS011;11574;51.058;13.712;2022-08-19T09:17:58;14.50;;;12.60;;
22814;SDS011;11574;51.058;13.712;2022-08-19T09:23:03;16.17;;;12.10;;
22814;SDS011;11574;51.058;13.712;2022-08-19T09:28:05;17.00;;;12.90;;
22814;SDS011;11574;51.058;13.712;2022-08-19T09:33:08;13.87;;;12.43;;
22814;SDS011;11574;51.058;13.712;2022-08-19T09:38:12;16.77;;;12.63;;
22814;SDS011;11574;51.058;13.712;2022-08-19T09:43:14;17.75;;;12.25;;
22814;SDS011;11574;51.058;13.712;2022-08-19T09:48:19;13.50;;;11.15;;
22814;SDS011;11574;51.058;13.712;2022-08-19T09:53:25;13.10;;;11.63;;
22814;SDS011;11574;51.058;13.712;2022-08-19T09:58:28;14.80;;;11.40;;
22814;SDS011;11574;51.058;13.712;2022-08-19T10:03:31;15.43;;;11.43;;
22814;SDS011;11574;51.058;13.712;2022-08-19T10:08:36;17.23;;;10.63;;
22814;SDS011;11574;51.058;13.712;2022-08-19T10:13:39;11.07;;;9.80;;
22814;SDS011;11574;51.058;13.712;2022-08-19T10:18:42;12.15;;;8.30;;
22814;SDS011;11574;51.058;13.712;2022-08-19T10:23:46;10.82;;;8.15;;
22814;SDS011;11574;51.058;13.712;2022-08-19T10:28:49;9.18;;;7.70;;
22814;SDS011;11574;51.058;13.712;2022-08-19T10:33:52;8.85;;;7.78;;
22814;SDS011;11574;51.058;13.712;2022-08-19T10:39:09;10.15;;;7.63;;
22814;SDS011;11574;51.058;13.712;2022-08-19T10:44:12;8.73;;;7.82;;
22814;SDS011;11574;51.058;13.712;2022-08-19T10:49:16;9.25;;;6.72;;
22814;SDS011;11574;51.058;13.712;2022-08-19T10:54:21;7.88;;;5.85;;
22814;SDS011;11574;51.058;13.712;2022-08-19T10:59:25;8.05;;;5.68;;
22814;SDS011;11574;51.058;13.712;2022-08-19T11:04:27;10.77;;;6.18;;
22814;SDS011;11574;51.058;13.712;2022-08-19T11:09:31;8.60;;;6.53;;
22814;SDS011;11574;51.058;13.712;2022-08-19T11:14:33;10.10;;;8.18;;
22814;SDS011;11574;51.058;13.712;2022-08-19T11:19:35;13.55;;;8.60;;
22814;SDS011;11574;51.058;13.712;2022-08-19T11:24:39;10.15;;;8.35;;
22814;SDS011;11574;51.058;13.712;2022-08-19T11:29:42;9.63;;;8.63;;
22814;SDS011;11574;51.058;13.712;2022-08-19T11:34:44;9.77;;;8.77;;
22814;SDS011;11574;51.058;13.712;2022-08-19T11:39:48;10.65;;;9.52;;
22814;SDS011;11574;51.058;13.712;2022-08-19T11:44:50;12.88;;;10.27;;
22814;SDS011;11574;51.058;13.712;2022-08-19T11:49:53;13.80;;;10.25;;
22814;SDS011;11574;51.058;13.712;2022-08-19T11:54:57;21.17;;;10.35;;
22814;SDS011;11574;51.058;13.712;2022-08-19T11:59:59;13.93;;;11.20;;
22814;SDS011;11574;51.058;13.712;2022-08-19T12:05:01;18.52;;;12.27;;
22814;SDS011;11574;51.058;13.712;2022-08-19T12:10:05;15.43;;;12.83;;
22814;SDS011;11574;51.058;13.712;2022-08-19T12:15:08;23.33;;;15.40;;
22814;SDS011;11574;51.058;13.712;2022-08-19T12:20:11;20.27;;;15.38;;
22814;SDS011;11574;51.058;13.712;2022-08-19T12:25:17;20.57;;;17.03;;
22814;SDS011;11574;51.058;13.712;2022-08-19T12:30:19;19.33;;;16.92;;
22814;SDS011;11574;51.058;13.712;2022-08-19T12:35:21;19.95;;;16.23;;
22814;SDS011;11574;51.058;13.712;2022-08-19T12:40:25;21.60;;;16.52;;
22814;SDS011;11574;51.058;13.712;2022-08-19T12:45:27;19.60;;;16.27;;
22814;SDS011;11574;51.058;13.712;2022-08-19T12:50:30;19.48;;;16.50;;
22814;SDS011;11574;51.058;13.712;2022-08-19T12:55:34;21.60;;;16.92;;
22814;SDS011;11574;51.058;13.712;2022-08-19T13:00:36;17.98;;;16.08;;
22814;SDS011;11574;51.058;13.712;2022-08-19T13:05:39;21.50;;;16.67;;
22814;SDS011;11574;51.058;13.712;2022-08-19T13:10:43;21.42;;;17.83;;
22814;SDS011;11574;51.058;13.712;2022-08-19T13:15:45;23.92;;;17.70;;
22814;SDS011;11574;51.058;13.712;2022-08-19T13:20:48;21.45;;;18.70;;
22814;SDS011;11574;51.058;13.712;2022-08-19T13:25:58;27.40;;;20.37;;
22814;SDS011;11574;51.058;13.712;2022-08-19T13:31:00;24.40;;;19.38;;
22814;SDS011;11574;51.058;13.712;2022-08-19T13:36:20;23.73;;;18.42;;
22814;SDS011;11574;51.058;13.712;2022-08-19T13:41:24;25.30;;;19.25;;
22814;SDS011;11574;51.058;13.712;2022-08-19T13:46:27;26.35;;;20.50;;
22814;SDS011;11574;51.058;13.712;2022-08-19T13:51:29;25.83;;;21.67;;
22814;SDS011;11574;51.058;13.712;2022-08-19T13:56:34;30.97;;;22.97;;
22814;SDS011;11574;51.058;13.712;2022-08-19T14:01:39;29.63;;;21.80;;
22814;SDS011;11574;51.058;13.712;2022-08-19T14:06:42;24.80;;;21.13;;
22814;SDS011;11574;51.058;13.712;2022-08-19T14:11:47;27.70;;;22.33;;
22814;SDS011;11574;51.058;13.712;2022-08-19T14:16:50;29.27;;;22.57;;
22814;SDS011;11574;51.058;13.712;2022-08-19T14:21:53;27.43;;;23.03;;
22814;SDS011;11574;51.058;13.712;2022-08-19T14:26:59;30.40;;;24.57;;
22814;SDS011;11574;51.058;13.712;2022-08-19T14:32:03;38.50;;;25.13;;
22814;SDS011;11574;51.058;13.712;2022-08-19T14:37:05;32.30;;;24.40;;
22814;SDS011;11574;51.058;13.712;2022-08-19T14:42:11;35.20;;;26.63;;
22814;SDS011;11574;51.058;13.712;2022-08-19T14:47:16;31.20;;;23.27;;
22814;SDS011;11574;51.058;13.712;2022-08-19T14:52:18;35.70;;;25.30;;
22814;SDS011;11574;51.058;13.712;2022-08-19T14:57:22;30.07;;;23.20;;
22814;SDS011;11574;51.058;13.712;2022-08-19T15:02:24;27.90;;;22.90;;
22814;SDS011;11574;51.058;13.712;2022-08-19T15:07:27;33.17;;;23.57;;
22814;SDS011;11574;51.058;13.712;2022-08-19T15:12:31;31.47;;;24.93;;
22814;SDS011;11574;51.058;13.712;2022-08-19T15:17:34;34.20;;;25.07;;
22814;SDS011;11574;51.058;13.712;2022-08-19T15:22:37;33.47;;;25.43;;
22814;SDS011;11574;51.058;13.712;2022-08-19T15:27:41;29.87;;;23.80;;
22814;SDS011;11574;51.058;13.712;2022-08-19T15:32:44;33.23;;;26.10;;
22814;SDS011;11574;51.058;13.712;2022-08-19T15:37:47;32.07;;;24.23;;
22814;SDS011;11574;51.058;13.712;2022-08-19T15:42:51;35.83;;;24.83;;
22814;SDS011;11574;51.058;13.712;2022-08-19T15:47:55;32.70;;;24.50;;
22814;SDS011;11574;51.058;13.712;2022-08-19T15:52:58;32.00;;;23.87;;
22814;SDS011;11574;51.058;13.712;2022-08-19T15:58:03;32.50;;;24.60;;
22814;SDS011;11574;51.058;13.712;2022-08-19T16:03:23;32.53;;;25.80;;
22814;SDS011;11574;51.058;13.712;2022-08-19T16:08:43;29.73;;;22.17;;
22814;SDS011;11574;51.058;13.712;2022-08-19T16:13:50;24.17;;;21.17;;
22814;SDS011;11574;51.058;13.712;2022-08-19T16:18:53;23.57;;;20.13;;
22814;SDS011;11574;51.058;13.712;2022-08-19T16:23:56;26.87;;;21.07;;
22814;SDS011;11574;51.058;13.712;2022-08-19T16:29:00;23.70;;;20.30;;
22814;SDS011;11574;51.058;13.712;2022-08-19T16:34:03;25.40;;;19.33;;
22814;SDS011;11574;51.058;13.712;2022-08-19T16:39:05;26.43;;;19.10;;
22814;SDS011;11574;51.058;13.712;2022-08-19T16:44:09;23.67;;;18.67;;
22814;SDS011;11574;51.058;13.712;2022-08-19T16:49:12;23.97;;;19.87;;
22814;SDS011;11574;51.058;13.712;2022-08-19T16:54:15;28.60;;;20.23;;
22814;SDS011;11574;51.058;13.712;2022-08-19T16:59:18;23.53;;;19.37;;
22814;SDS011;11574;51.058;13.712;2022-08-19T17:04:23;21.73;;;18.47;;
22814;SDS011;11574;51.058;13.712;2022-08-19T17:09:25;22.87;;;19.03;;
22814;SDS011;11574;51.058;13.712;2022-08-19T17:14:28;20.57;;;17.93;;
22814;SDS011;11574;51.058;13.712;2022-08-19T17:19:31;22.30;;;18.27;;
22814;SDS011;11574;51.058;13.712;2022-08-19T17:24:34;23.70;;;17.83;;
22814;SDS011;11574;51.058;13.712;2022-08-19T17:29:38;21.60;;;19.00;;
22814;SDS011;11574;51.058;13.712;2022-08-19T17:34:40;27.47;;;18.70;;
22814;SDS011;11574;51.058;13.712;2022-08-19T17:39:46;22.70;;;17.87;;
22814;SDS011;11574;51.058;13.712;2022-08-19T17:44:49;23.67;;;18.27;;
22814;SDS011;11574;51.058;13.712;2022-08-19T17:49:51;21.17;;;17.57;;
22814;SDS011;11574;51.058;13.712;2022-08-19T17:54:54;21.43;;;17.00;;
22814;SDS011;11574;51.058;13.712;2022-08-19T17:59:57;21.10;;;17.37;;
22814;SDS011;11574;51.058;13.712;2022-08-19T18:05:02;22.00;;;17.97;;
22814;SDS011;11574;51.058;13.712;2022-08-19T18:10:04;20.67;;;17.87;;
22814;SDS011;11574;51.058;13.712;2022-08-19T18:15:09;22.30;;;18.13;;
22814;SDS011;11574;51.058;13.712;2022-08-19T18:20:12;23.60;;;18.80;;
22814;SDS011;11574;51.058;13.712;2022-08-19T18:25:15;22.93;;;17.87;;
22814;SDS011;11574;51.058;13.712;2022-08-19T18:30:20;19.80;;;15.90;;
22814;SDS011;11574;51.058;13.712;2022-08-19T18:35:24;24.17;;;17.63;;
22814;SDS011;11574;51.058;13.712;2022-08-19T18:40:28;25.87;;;17.50;;
22814;SDS011;11574;51.058;13.712;2022-08-19T18:45:50;27.30;;;19.73;;
22814;SDS011;11574;51.058;13.712;2022-08-19T18:51:10;23.17;;;18.87;;
22814;SDS011;11574;51.058;13.712;2022-08-19T18:56:14;23.00;;;18.80;;
22814;SDS011;11574;51.058;13.712;2022-08-19T19:01:23;24.63;;;19.83;;
22814;SDS011;11574;51.058;13.712;2022-08-19T19:06:27;26.93;;;19.77;;
22814;SDS011;11574;51.058;13.712;2022-08-19T19:11:30;28.63;;;21.43;;
22814;SDS011;11574;51.058;13.712;2022-08-19T19:16:34;35.30;;;24.40;;
22814;SDS011;11574;51.058;13.712;2022-08-19T19:21:37;29.07;;;25.07;;
22814;SDS011;11574;51.058;13.712;2022-08-19T19:26:42;33.70;;;25.60;;
22814;SDS011;11574;51.058;13.712;2022-08-19T19:31:47;33.17;;;25.27;;
22814;SDS011;11574;51.058;13.712;2022-08-19T19:36:51;31.20;;;24.33;;
22814;SDS011;11574;51.058;13.712;2022-08-19T19:41:54;29.80;;;23.90;;
22814;SDS011;11574;51.058;13.712;2022-08-19T19:46:57;32.53;;;24.03;;
22814;SDS011;11574;51.058;13.712;2022-08-19T19:51:59;33.70;;;25.90;;
22814;SDS011;11574;51.058;13.712;2022-08-19T19:57:04;31.90;;;22.87;;
22814;SDS011;11574;51.058;13.712;2022-08-19T20:02:08;33.37;;;23.17;;
22814;SDS011;11574;51.058;13.712;2022-08-19T20:07:14;28.67;;;22.47;;
22814;SDS011;11574;51.058;13.712;2022-08-19T20:12:16;27.43;;;22.37;;
22814;SDS011;11574;51.058;13.712;2022-08-19T20:17:20;32.00;;;21.50;;
22814;SDS011;11574;51.058;13.712;2022-08-19T20:22:22;27.00;;;21.23;;
22814;SDS011;11574;51.058;13.712;2022-08-19T20:27:25;27.67;;;20.87;;
22814;SDS011;11574;51.058;13.712;2022-08-19T20:32:28;27.90;;;20.53;;
22814;SDS011;11574;51.058;13.712;2022-08-19T20:37:31;25.93;;;19.30;;
22814;SDS011;11574;51.058;13.712;2022-08-19T20:42:33;26.30;;;19.30;;
22814;SDS011;11574;51.058;13.712;2022-08-19T20:47:37;26.63;;;20.63;;
22814;SDS011;11574;51.058;13.712;2022-08-19T20:52:40;24.23;;;19.03;;
22814;SDS011;11574;51.058;13.712;2022-08-19T20:57:42;26.07;;;19.93;;
22814;SDS011;11574;51.058;13.712;2022-08-19T21:02:47;29.87;;;21.20;;
22814;SDS011;11574;51.058;13.712;2022-08-19T21:07:49;22.93;;;18.20;;
22814;SDS011;11574;51.058;13.712;2022-08-19T21:12:51;27.00;;;19.10;;
22814;SDS011;11574;51.058;13.712;2022-08-19T21:17:58;25.27;;;18.70;;
22814;SDS011;11574;51.058;13.712;2022-08-19T21:23:01;25.43;;;18.47;;
22814;SDS011;11574;51.058;13.712;2022-08-19T21:28:04;24.97;;;17.83;;
22814;SDS011;11574;51.058;13.712;2022-08-19T21:33:08;22.77;;;17.30;;
22814;SDS011;11574;51.058;13.712;2022-08-19T21:38:11;24.03;;;17.13;;
22814;SDS011;11574;51.058;13.712;2022-08-19T21:43:13;24.87;;;17.93;;
22814;SDS011;11574;51.058;13.712;2022-08-19T21:48:17;25.93;;;17.80;;
22814;SDS011;11574;51.058;13.712;2022-08-19T21:53:20;22.67;;;17.20;;
22814;SDS011;11574;51.058;13.712;2022-08-19T21:58:22;30.40;;;16.87;;
22814;SDS011;11574;51.058;13.712;2022-08-19T22:03:26;20.97;;;18.20;;
22814;SDS011;11574;51.058;13.712;2022-08-19T22:08:30;24.53;;;18.90;;
22814;SDS011;11574;51.058;13.712;2022-08-19T22:13:33;27.00;;;19.20;;
22814;SDS011;11574;51.058;13.712;2022-08-19T22:18:38;25.90;;;18.50;;
22814;SDS011;11574;51.058;13.712;2022-08-19T22:23:41;25.43;;;18.37;;
22814;SDS011;11574;51.058;13.712;2022-08-19T22:28:43;26.77;;;17.87;;
22814;SDS011;11574;51.058;13.712;2022-08-19T22:33:47;24.03;;;18.47;;
22814;SDS011;11574;51.058;13.712;2022-08-19T22:38:51;24.30;;;19.00;;
22814;SDS011;11574;51.058;13.712;2022-08-19T22:43:54;23.17;;;18.57;;
22814;SDS011;11574;51.058;13.712;2022-08-19T22:48:59;24.73;;;18.23;;
22814;SDS011;11574;51.058;13.712;2022-08-19T22:54:07;23.50;;;17.60;;
22814;SDS011;11574;51.058;13.712;2022-08-19T22:59:09;35.03;;;25.53;;
22814;SDS011;11574;51.058;13.712;2022-08-19T23:04:13;33.10;;;25.03;;
22814;SDS011;11574;51.058;13.712;2022-08-19T23:09:15;26.30;;;18.47;;
22814;SDS011;11574;51.058;13.712;2022-08-19T23:14:17;23.43;;;17.83;;
22814;SDS011;11574;51.058;13.712;2022-08-19T23:19:21;29.07;;;20.07;;
22814;SDS011;11574;51.058;13.712;2022-08-19T23:24:23;24.73;;;18.80;;
22814;SDS011;11574;51.058;13.712;2022-08-19T23:29:29;25.37;;;19.27;;
22814;SDS011;11574;51.058;13.712;2022-08-19T23:34:51;26.70;;;18.20;;
22814;SDS011;11574;51.058;13.712;2022-08-19T23:39:53;27.30;;;18.80;;
22814;SDS011;11574;51.058;13.712;2022-08-19T23:44:58;28.27;;;18.90;;
22814;SDS011;11574;51.058;13.712;2022-08-19T23:50:03;29.93;;;19.63;;
22814;SDS011;11574;51.058;13.712;2022-08-19T23:55:06;24.60;;;19.10;;
